createdAt,value
2019-02-14T00:00:07.995Z,76.23
2019-02-14T00:01:07.971Z,76.23
2019-02-14T00:02:07.968Z,76.37
2019-02-14T00:03:07.962Z,77.16
2019-02-14T00:04:07.972Z,77.30
2019-02-14T00:05:15.899Z,75.95
2019-02-14T00:06:08.925Z,77.30
2019-02-14T00:07:07.911Z,76.64
2019-02-14T00:08:07.908Z,76.26
2019-02-14T00:09:07.908Z,76.99
2019-02-14T00:10:07.891Z,76.89
2019-02-14T00:11:07.871Z,77.20
2019-02-14T00:12:07.871Z,76.99
2019-02-14T00:13:07.855Z,77.20
2019-02-14T00:14:07.849Z,77.20
2019-02-14T00:15:07.846Z,77.20
2019-02-14T00:16:07.839Z,76.99
2019-02-14T00:17:07.805Z,77.30
2019-02-14T00:18:07.810Z,76.26
2019-02-14T00:19:07.801Z,76.89
2019-02-14T00:20:07.788Z,77.40
2019-02-14T00:21:07.775Z,77.65
2019-02-14T00:22:07.751Z,77.40
2019-02-14T00:23:07.750Z,77.75
2019-02-14T00:24:07.794Z,77.72
2019-02-14T00:25:07.721Z,77.86
2019-02-14T00:26:07.708Z,77.65
2019-02-14T00:27:07.705Z,77.40
2019-02-14T00:28:07.684Z,77.55
2019-02-14T00:29:07.693Z,77.44
2019-02-14T00:30:07.668Z,77.44
2019-02-14T00:31:07.664Z,77.44
2019-02-14T00:32:07.650Z,78.00
2019-02-14T00:33:07.637Z,78.48
2019-02-14T00:34:07.665Z,77.96
2019-02-14T00:35:07.643Z,77.86
2019-02-14T00:36:07.615Z,77.55
2019-02-14T00:37:07.599Z,77.51
2019-02-14T00:38:07.591Z,77.51
2019-02-14T00:39:07.601Z,77.34
2019-02-14T00:40:07.717Z,78.10
2019-02-14T00:41:07.563Z,79.49
2019-02-14T00:42:07.547Z,79.35
2019-02-14T00:43:07.532Z,79.45
2019-02-14T00:44:07.540Z,79.28
2019-02-14T00:45:07.529Z,80.11
2019-02-14T00:46:07.507Z,79.69
2019-02-14T00:47:07.534Z,79.59
2019-02-14T00:48:07.488Z,79.14
2019-02-14T00:49:07.526Z,79.76
2019-02-14T00:50:07.460Z,79.35
2019-02-14T00:51:07.444Z,78.83
2019-02-14T00:52:07.437Z,79.03
2019-02-14T00:53:07.433Z,79.10
2019-02-14T00:54:07.439Z,78.17
2019-02-14T00:55:07.415Z,77.96
2019-02-14T00:56:07.390Z,77.75
2019-02-14T00:57:07.382Z,77.75
2019-02-14T00:58:07.374Z,77.86
2019-02-14T00:59:07.363Z,77.55
2019-02-14T01:00:07.369Z,77.79
2019-02-14T01:01:07.342Z,77.89
2019-02-14T01:02:07.328Z,78.31
2019-02-14T01:03:07.318Z,78.41
2019-02-14T01:04:07.307Z,78.52
2019-02-14T01:05:07.315Z,78.41
2019-02-14T01:06:07.290Z,79.35
2019-02-14T01:07:07.281Z,79.14
2019-02-14T01:08:07.274Z,79.45
2019-02-14T01:09:07.253Z,79.45
2019-02-14T01:10:07.260Z,79.03
2019-02-14T01:11:07.233Z,79.14
2019-02-14T01:12:07.227Z,79.24
2019-02-14T01:13:07.213Z,78.52
2019-02-14T01:14:07.207Z,78.20
2019-02-14T01:15:07.222Z,79.14
2019-02-14T01:16:07.190Z,79.14
2019-02-14T01:17:07.196Z,79.03
2019-02-14T01:18:07.159Z,79.03
2019-02-14T01:19:07.200Z,78.93
2019-02-14T01:20:07.155Z,79.38
2019-02-14T01:21:07.133Z,78.97
2019-02-14T01:22:07.123Z,79.49
2019-02-14T01:23:07.120Z,78.97
2019-02-14T01:24:07.096Z,79.59
2019-02-14T01:25:07.108Z,79.28
2019-02-14T01:26:07.085Z,79.07
2019-02-14T01:27:07.067Z,79.80
2019-02-14T01:28:07.056Z,79.17
2019-02-14T01:29:07.042Z,79.38
2019-02-14T01:30:07.062Z,79.80
2019-02-14T01:31:07.022Z,79.83
2019-02-14T01:32:07.021Z,79.69
2019-02-14T01:33:07.010Z,79.28
2019-02-14T01:34:06.999Z,79.49
2019-02-14T01:35:07.003Z,79.28
2019-02-14T01:36:06.970Z,79.28
2019-02-14T01:37:06.962Z,79.21
2019-02-14T01:38:06.960Z,79.94
2019-02-14T01:39:06.940Z,80.36
2019-02-14T01:40:06.943Z,80.77
2019-02-14T01:41:06.918Z,79.83
2019-02-14T01:42:06.906Z,79.83
2019-02-14T01:43:06.898Z,79.38
2019-02-14T01:44:06.893Z,79.42
2019-02-14T01:45:06.891Z,79.07
2019-02-14T01:46:06.870Z,79.17
2019-02-14T01:47:08.011Z,78.97
2019-02-14T01:48:06.845Z,79.07
2019-02-14T01:49:06.833Z,79.17
2019-02-14T01:50:06.847Z,79.17
2019-02-14T01:51:06.812Z,78.86
2019-02-14T01:52:06.809Z,78.97
2019-02-14T01:53:06.790Z,79.28
2019-02-14T01:54:06.780Z,79.17
2019-02-14T01:55:06.790Z,78.97
2019-02-14T01:56:06.763Z,79.17
2019-02-14T01:57:06.750Z,79.17
2019-02-14T01:58:06.744Z,79.07
2019-02-14T01:59:06.727Z,79.38
2019-02-14T02:00:06.745Z,79.17
2019-02-14T02:01:06.707Z,79.59
2019-02-14T02:02:06.699Z,79.21
2019-02-14T02:03:06.686Z,79.42
2019-02-14T02:04:06.684Z,79.38
2019-02-14T02:05:06.682Z,79.17
2019-02-14T02:06:06.652Z,79.00
2019-02-14T02:07:06.647Z,79.07
2019-02-14T02:08:06.633Z,79.21
2019-02-14T02:09:06.621Z,79.21
2019-02-14T02:10:06.635Z,79.11
2019-02-14T02:11:06.612Z,79.21
2019-02-14T02:12:06.590Z,79.42
2019-02-14T02:13:06.583Z,79.32
2019-02-14T02:14:06.576Z,79.21
2019-02-14T02:15:06.583Z,79.28
2019-02-14T02:16:06.550Z,79.28
2019-02-14T02:17:06.553Z,79.17
2019-02-14T02:18:06.526Z,78.97
2019-02-14T02:19:06.524Z,79.07
2019-02-14T02:20:06.522Z,79.63
2019-02-14T02:21:06.493Z,79.38
2019-02-14T02:22:06.485Z,79.42
2019-02-14T02:23:06.485Z,79.17
2019-02-14T02:24:06.466Z,79.38
2019-02-14T02:25:06.470Z,79.38
2019-02-14T02:26:06.441Z,79.59
2019-02-14T02:27:06.431Z,78.86
2019-02-14T02:28:06.420Z,79.07
2019-02-14T02:29:06.420Z,78.97
2019-02-14T02:30:06.436Z,79.28
2019-02-14T02:31:06.391Z,79.28
2019-02-14T02:32:06.379Z,79.17
2019-02-14T02:33:06.369Z,78.52
2019-02-14T02:34:06.364Z,78.45
2019-02-14T02:35:06.367Z,78.55
2019-02-14T02:36:06.344Z,78.34
2019-02-14T02:37:06.331Z,78.55
2019-02-14T02:38:06.315Z,78.55
2019-02-14T02:39:06.320Z,79.07
2019-02-14T02:40:06.331Z,79.07
2019-02-14T02:41:06.292Z,79.28
2019-02-14T02:42:06.274Z,79.00
2019-02-14T02:43:06.275Z,79.11
2019-02-14T02:44:06.253Z,79.00
2019-02-14T02:45:06.242Z,78.97
2019-02-14T02:46:06.246Z,79.11
2019-02-14T02:47:06.232Z,79.00
2019-02-14T02:48:06.213Z,79.32
2019-02-14T02:49:06.277Z,79.35
2019-02-14T02:50:06.190Z,79.52
2019-02-14T02:51:06.197Z,80.19
2019-02-14T02:52:06.172Z,79.87
2019-02-14T02:53:06.168Z,79.66
2019-02-14T02:54:06.147Z,79.56
2019-02-14T02:55:06.146Z,80.26
2019-02-14T02:56:06.191Z,80.26
2019-02-14T02:57:06.121Z,80.15
2019-02-14T02:58:06.120Z,80.26
2019-02-14T02:59:06.096Z,80.26
2019-02-14T03:00:06.085Z,80.19
2019-02-14T03:01:06.088Z,79.63
2019-02-14T03:02:06.066Z,79.87
2019-02-14T03:03:06.055Z,80.33
2019-02-14T03:04:06.069Z,80.08
2019-02-14T03:05:06.064Z,80.19
2019-02-14T03:06:10.493Z,80.19
2019-02-14T03:07:06.014Z,79.98
2019-02-14T03:08:06.001Z,79.98
2019-02-14T03:09:05.988Z,79.98
2019-02-14T03:10:05.981Z,79.77
2019-02-14T03:11:05.986Z,79.56
2019-02-14T03:12:05.959Z,79.46
2019-02-14T03:13:05.948Z,79.87
2019-02-14T03:14:05.937Z,79.80
2019-02-14T03:15:05.932Z,80.02
2019-02-14T03:16:05.936Z,80.40
2019-02-14T03:17:05.914Z,80.29
2019-02-14T03:18:05.905Z,79.98
2019-02-14T03:19:05.885Z,80.22
2019-02-14T03:20:05.873Z,79.46
2019-02-14T03:21:05.881Z,79.98
2019-02-14T03:22:05.851Z,79.80
2019-02-14T03:23:05.849Z,80.22
2019-02-14T03:24:05.830Z,80.43
2019-02-14T03:25:05.827Z,81.05
2019-02-14T03:26:05.825Z,82.24
2019-02-14T03:27:05.797Z,81.93
2019-02-14T03:28:05.793Z,82.65
2019-02-14T03:29:05.782Z,82.90
2019-02-14T03:30:05.779Z,82.76
2019-02-14T03:31:05.801Z,82.90
2019-02-14T03:32:05.746Z,83.11
2019-02-14T03:33:05.736Z,82.55
2019-02-14T03:34:05.732Z,82.59
2019-02-14T03:35:05.725Z,82.53
2019-02-14T03:36:05.726Z,83.25
2019-02-14T03:37:05.698Z,83.81
2019-02-14T03:38:05.683Z,83.98
2019-02-14T03:39:05.674Z,84.40
2019-02-14T03:40:05.663Z,83.98
2019-02-14T03:41:05.671Z,84.40
2019-02-14T03:42:05.643Z,84.61
2019-02-14T03:43:05.633Z,83.88
2019-02-14T03:44:05.618Z,83.47
2019-02-14T03:45:05.614Z,83.47
2019-02-14T03:46:05.621Z,83.25
2019-02-14T03:47:05.605Z,84.05
2019-02-14T03:48:05.579Z,83.11
2019-02-14T03:49:05.570Z,83.32
2019-02-14T03:50:05.562Z,82.90
2019-02-14T03:51:05.575Z,82.94
2019-02-14T03:52:05.540Z,83.42
2019-02-14T03:53:05.536Z,83.78
2019-02-14T03:54:05.514Z,83.53
2019-02-14T03:55:05.506Z,83.67
2019-02-14T03:56:05.512Z,83.47
2019-02-14T03:57:05.481Z,83.36
2019-02-14T03:58:05.472Z,83.57
2019-02-14T03:59:05.470Z,83.47
2019-02-14T04:00:05.450Z,83.36
2019-02-14T04:01:05.458Z,83.36
2019-02-14T04:02:05.438Z,83.67
2019-02-14T04:03:05.418Z,83.40
2019-02-14T04:04:05.408Z,83.92
2019-02-14T04:05:05.400Z,83.92
2019-02-14T04:06:05.412Z,83.61
2019-02-14T04:07:05.377Z,83.81
2019-02-14T04:08:05.368Z,84.17
2019-02-14T04:09:05.362Z,84.17
2019-02-14T04:10:05.344Z,85.00
2019-02-14T04:11:05.355Z,84.83
2019-02-14T04:12:05.323Z,84.89
2019-02-14T04:13:05.311Z,85.42
2019-02-14T04:14:05.301Z,85.31
2019-02-14T04:15:05.295Z,85.83
2019-02-14T04:16:05.305Z,86.05
2019-02-14T04:17:05.286Z,85.04
2019-02-14T04:18:05.259Z,85.14
2019-02-14T04:19:05.253Z,85.25
2019-02-14T04:20:05.237Z,84.83
2019-02-14T04:21:05.415Z,85.35
2019-02-14T04:22:05.216Z,85.63
2019-02-14T04:23:05.238Z,85.31
2019-02-14T04:24:05.193Z,85.11
2019-02-14T04:25:05.187Z,84.89
2019-02-14T04:26:05.172Z,85.14
2019-02-14T04:27:05.193Z,84.89
2019-02-14T04:28:05.158Z,84.69
2019-02-14T04:29:05.153Z,84.79
2019-02-14T04:30:05.141Z,85.06
2019-02-14T04:31:05.119Z,84.96
2019-02-14T04:32:05.125Z,84.79
2019-02-14T04:33:05.100Z,84.75
2019-02-14T04:34:05.094Z,84.75
2019-02-14T04:35:05.095Z,84.65
2019-02-14T04:36:05.067Z,85.00
2019-02-14T04:37:05.073Z,84.55
2019-02-14T04:38:05.049Z,84.69
2019-02-14T04:39:05.033Z,84.75
2019-02-14T04:40:05.026Z,84.96
2019-02-14T04:41:05.024Z,84.65
2019-02-14T04:42:05.027Z,84.38
2019-02-14T04:43:04.991Z,85.06
2019-02-14T04:44:04.985Z,85.27
2019-02-14T04:45:04.971Z,85.27
2019-02-14T04:46:04.961Z,84.75
2019-02-14T04:47:04.969Z,84.75
2019-02-14T04:48:04.955Z,84.34
2019-02-14T04:49:04.926Z,84.75
2019-02-14T04:50:04.917Z,84.86
2019-02-14T04:51:04.904Z,84.96
2019-02-14T04:52:04.912Z,84.86
2019-02-14T04:53:04.902Z,84.96
2019-02-14T04:54:04.881Z,84.75
2019-02-14T04:55:04.863Z,84.86
2019-02-14T04:56:04.852Z,84.55
2019-02-14T04:57:04.857Z,84.75
2019-02-14T04:58:04.833Z,85.27
2019-02-14T04:59:04.825Z,84.86
2019-02-14T05:00:04.814Z,85.17
2019-02-14T05:01:04.804Z,85.27
2019-02-14T05:02:04.805Z,85.06
2019-02-14T05:03:04.778Z,84.75
2019-02-14T05:04:04.769Z,84.96
2019-02-14T05:05:04.758Z,84.92
2019-02-14T05:06:04.745Z,84.86
2019-02-14T05:07:04.761Z,84.75
2019-02-14T05:08:04.728Z,84.82
2019-02-14T05:09:04.712Z,84.82
2019-02-14T05:10:04.704Z,84.72
2019-02-14T05:11:04.695Z,85.06
2019-02-14T05:12:04.705Z,84.75
2019-02-14T05:13:04.673Z,84.86
2019-02-14T05:14:04.668Z,84.65
2019-02-14T05:15:04.651Z,84.40
2019-02-14T05:16:04.639Z,84.44
2019-02-14T05:17:04.645Z,85.03
2019-02-14T05:18:04.617Z,85.17
2019-02-14T05:19:04.611Z,85.03
2019-02-14T05:20:04.603Z,84.75
2019-02-14T05:21:04.594Z,84.75
2019-02-14T05:22:04.592Z,84.61
2019-02-14T05:23:04.564Z,83.98
2019-02-14T05:24:04.553Z,83.81
2019-02-14T05:25:04.542Z,84.34
2019-02-14T05:26:04.533Z,84.23
2019-02-14T05:27:04.546Z,84.44
2019-02-14T05:28:04.520Z,84.40
2019-02-14T05:29:04.505Z,84.23
2019-02-14T05:30:04.492Z,84.02
2019-02-14T05:31:04.481Z,83.71
2019-02-14T05:32:04.485Z,83.81
2019-02-14T05:33:04.461Z,83.92
2019-02-14T05:34:04.447Z,83.88
2019-02-14T05:35:04.438Z,84.12
2019-02-14T05:36:04.428Z,84.23
2019-02-14T05:37:04.451Z,84.44
2019-02-14T05:38:04.404Z,83.81
2019-02-14T05:39:04.394Z,83.81
2019-02-14T05:40:04.384Z,83.81
2019-02-14T05:41:04.373Z,83.61
2019-02-14T05:42:04.362Z,83.67
2019-02-14T05:43:04.373Z,84.02
2019-02-14T05:44:04.339Z,83.71
2019-02-14T05:45:04.333Z,83.81
2019-02-14T05:46:04.320Z,83.71
2019-02-14T05:47:04.311Z,83.18
2019-02-14T05:48:04.315Z,83.88
2019-02-14T05:49:04.302Z,83.25
2019-02-14T05:50:04.276Z,83.78
2019-02-14T05:51:04.269Z,83.57
2019-02-14T05:52:04.257Z,83.36
2019-02-14T05:53:04.261Z,83.36
2019-02-14T05:54:04.238Z,82.73
2019-02-14T05:55:04.232Z,83.04
2019-02-14T05:56:04.215Z,83.04
2019-02-14T05:57:04.212Z,82.94
2019-02-14T05:58:04.208Z,83.04
2019-02-14T05:59:04.181Z,82.63
2019-02-14T06:00:04.176Z,82.63
2019-02-14T06:01:04.162Z,82.94
2019-02-14T06:02:04.149Z,82.94
2019-02-14T06:03:04.163Z,82.73
2019-02-14T06:04:04.127Z,82.84
2019-02-14T06:05:04.118Z,82.94
2019-02-14T06:06:04.109Z,82.63
2019-02-14T06:07:04.100Z,82.84
2019-02-14T06:08:04.110Z,83.04
2019-02-14T06:09:04.084Z,82.98
2019-02-14T06:10:04.065Z,82.67
2019-02-14T06:11:04.056Z,83.15
2019-02-14T06:12:04.054Z,83.29
2019-02-14T06:13:04.052Z,82.73
2019-02-14T06:14:04.025Z,82.63
2019-02-14T06:15:04.018Z,83.29
2019-02-14T06:16:04.015Z,82.77
2019-02-14T06:17:04.012Z,83.15
2019-02-14T06:18:04.002Z,82.67
2019-02-14T06:19:03.982Z,83.08
2019-02-14T06:20:03.962Z,83.92
2019-02-14T06:21:03.961Z,83.50
2019-02-14T06:22:03.946Z,83.29
2019-02-14T06:23:03.949Z,83.54
2019-02-14T06:24:03.917Z,83.95
2019-02-14T06:25:03.910Z,84.58
2019-02-14T06:26:03.896Z,84.48
2019-02-14T06:27:03.897Z,83.75
2019-02-14T06:28:03.906Z,84.06
2019-02-14T06:29:03.867Z,85.00
2019-02-14T06:30:03.860Z,85.00
2019-02-14T06:31:03.852Z,84.89
2019-02-14T06:32:03.830Z,85.21
2019-02-14T06:33:03.838Z,84.89
2019-02-14T06:34:03.814Z,84.58
2019-02-14T06:35:03.798Z,84.79
2019-02-14T06:36:03.803Z,85.21
2019-02-14T06:37:09.491Z,84.94
2019-02-14T06:38:04.783Z,85.04
2019-02-14T06:39:03.773Z,85.56
2019-02-14T06:40:03.750Z,85.25
2019-02-14T06:41:03.804Z,84.52
2019-02-14T06:42:03.740Z,84.79
2019-02-14T06:43:03.741Z,84.79
2019-02-14T06:44:03.703Z,84.52
2019-02-14T06:45:03.690Z,85.42
2019-02-14T06:46:03.680Z,85.35
2019-02-14T06:47:04.823Z,85.14
2019-02-14T06:48:03.693Z,85.31
2019-02-14T06:49:03.652Z,85.35
2019-02-14T06:50:03.639Z,84.89
2019-02-14T06:51:03.627Z,85.04
2019-02-14T06:52:03.616Z,85.21
2019-02-14T06:53:03.626Z,84.79
2019-02-14T06:54:03.601Z,84.79
2019-02-14T06:55:03.588Z,84.79
2019-02-14T06:56:03.577Z,84.48
2019-02-14T06:57:03.570Z,85.11
2019-02-14T06:58:03.575Z,84.48
2019-02-14T06:59:03.543Z,84.38
2019-02-14T07:00:03.538Z,84.79
2019-02-14T07:01:03.525Z,85.11
2019-02-14T07:02:03.511Z,84.89
2019-02-14T07:03:03.519Z,85.11
2019-02-14T07:04:03.490Z,85.11
2019-02-14T07:05:03.480Z,84.79
2019-02-14T07:06:03.480Z,85.11
2019-02-14T07:07:03.456Z,85.21
2019-02-14T07:08:03.482Z,84.48
2019-02-14T07:09:03.436Z,84.38
2019-02-14T07:10:03.429Z,85.06
2019-02-14T07:11:03.416Z,85.11
2019-02-14T07:12:03.405Z,85.06
2019-02-14T07:13:03.403Z,84.34
2019-02-14T07:14:03.405Z,83.71
2019-02-14T07:15:03.374Z,83.92
2019-02-14T07:16:03.363Z,83.25
2019-02-14T07:17:03.350Z,83.50
2019-02-14T07:18:03.343Z,83.15
2019-02-14T07:19:03.351Z,83.57
2019-02-14T07:20:03.318Z,83.15
2019-02-14T07:21:03.312Z,83.04
2019-02-14T07:22:03.302Z,82.84
2019-02-14T07:23:03.289Z,82.73
2019-02-14T07:24:03.298Z,82.48
2019-02-14T07:25:03.264Z,82.28
2019-02-14T07:26:03.255Z,81.79
2019-02-14T07:27:03.288Z,81.96
2019-02-14T07:28:03.242Z,81.76
2019-02-14T07:29:03.236Z,82.07
2019-02-14T07:30:03.210Z,81.55
2019-02-14T07:31:03.202Z,81.41
2019-02-14T07:32:03.189Z,81.23
2019-02-14T07:33:03.181Z,81.41
2019-02-14T07:34:04.099Z,80.51
2019-02-14T07:35:03.157Z,80.99
2019-02-14T07:36:03.151Z,81.09
2019-02-14T07:37:03.136Z,81.20
2019-02-14T07:38:03.138Z,81.20
2019-02-14T07:39:03.136Z,81.16
2019-02-14T07:40:03.115Z,81.16
2019-02-14T07:41:03.098Z,80.54
2019-02-14T07:42:03.093Z,80.74
2019-02-14T07:43:03.082Z,80.85
2019-02-14T07:44:03.079Z,80.85
2019-02-14T07:45:03.052Z,80.74
2019-02-14T07:46:03.049Z,80.64
2019-02-14T07:47:03.034Z,80.54
2019-02-14T07:48:03.022Z,80.43
2019-02-14T07:49:03.024Z,79.70
2019-02-14T07:50:03.014Z,80.33
2019-02-14T07:51:03.003Z,80.43
2019-02-14T07:52:02.991Z,80.29
2019-02-14T07:53:02.982Z,79.87
2019-02-14T07:54:02.978Z,79.18
2019-02-14T07:55:02.978Z,79.35
2019-02-14T07:56:02.941Z,79.35
2019-02-14T07:57:02.932Z,79.25
2019-02-14T07:58:02.933Z,79.46
2019-02-14T07:59:02.920Z,79.00
2019-02-14T08:00:02.895Z,79.21
2019-02-14T08:01:02.893Z,79.00
2019-02-14T08:02:02.889Z,79.00
2019-02-14T08:03:02.866Z,78.59
2019-02-14T08:04:02.868Z,78.49
2019-02-14T08:05:02.840Z,77.40
2019-02-14T08:06:02.829Z,77.61
2019-02-14T08:07:02.817Z,76.47
2019-02-14T08:08:02.823Z,77.51
2019-02-14T08:09:02.812Z,77.09
2019-02-14T08:10:02.801Z,77.40
2019-02-14T08:11:02.774Z,76.12
2019-02-14T08:12:02.768Z,76.02
2019-02-14T08:13:02.763Z,75.46
2019-02-14T08:14:02.759Z,75.26
2019-02-14T08:15:02.754Z,74.60
2019-02-14T08:16:02.743Z,74.49
2019-02-14T08:17:02.713Z,74.05
2019-02-14T08:18:02.704Z,73.39
2019-02-14T08:19:02.711Z,72.87
2019-02-14T08:20:02.688Z,72.90
2019-02-14T08:21:02.673Z,73.08
2019-02-14T08:22:02.676Z,73.00
2019-02-14T08:23:02.651Z,72.80
2019-02-14T08:24:02.660Z,73.46
2019-02-14T08:25:02.629Z,73.46
2019-02-14T08:26:10.588Z,73.46
2019-02-14T08:27:03.603Z,73.35
2019-02-14T08:28:02.601Z,73.04
2019-02-14T08:29:02.585Z,73.11
2019-02-14T08:30:02.596Z,73.22
2019-02-14T08:31:02.570Z,73.00
2019-02-14T08:32:02.553Z,72.69
2019-02-14T08:33:02.547Z,72.77
2019-02-14T08:34:02.550Z,72.42
2019-02-14T08:35:02.535Z,71.77
2019-02-14T08:36:02.522Z,71.25
2019-02-14T08:37:02.507Z,71.49
2019-02-14T08:38:02.490Z,70.15
2019-02-14T08:39:02.484Z,69.90
2019-02-14T08:40:02.492Z,69.18
2019-02-14T08:41:02.466Z,68.84
2019-02-14T08:42:02.447Z,68.84
2019-02-14T08:43:02.441Z,68.01
2019-02-14T08:44:02.442Z,67.46
2019-02-14T08:45:02.445Z,67.25
2019-02-14T08:46:02.419Z,67.33
2019-02-14T08:47:02.397Z,66.99
2019-02-14T08:48:02.387Z,65.64
2019-02-14T08:49:02.374Z,64.81
2019-02-14T08:50:02.385Z,65.57
2019-02-14T08:51:02.355Z,65.57
2019-02-14T08:52:02.363Z,65.23
2019-02-14T08:53:02.332Z,65.12
2019-02-14T08:54:02.334Z,65.51
2019-02-14T08:55:02.332Z,64.76
2019-02-14T08:56:02.309Z,64.03
2019-02-14T08:57:02.291Z,63.93
2019-02-14T08:58:02.297Z,63.62
2019-02-14T08:59:02.276Z,63.93
2019-02-14T09:00:02.295Z,63.59
2019-02-14T09:01:02.265Z,62.74
2019-02-14T09:02:02.249Z,62.74
2019-02-14T09:03:02.231Z,61.91
2019-02-14T09:04:02.228Z,61.85
2019-02-14T09:05:02.241Z,60.72
2019-02-14T09:06:02.200Z,60.72
2019-02-14T09:07:02.196Z,61.00
2019-02-14T09:08:02.183Z,60.38
2019-02-14T09:09:02.189Z,60.25
2019-02-14T09:10:02.177Z,60.46
2019-02-14T09:11:02.166Z,59.61
2019-02-14T09:12:02.136Z,58.70
2019-02-14T09:13:02.128Z,60.05
2019-02-14T09:14:02.115Z,60.12
2019-02-14T09:15:02.131Z,58.75
2019-02-14T09:16:02.095Z,58.08
2019-02-14T09:17:02.084Z,58.06
2019-02-14T09:18:02.075Z,56.18
2019-02-14T09:19:02.065Z,56.18
2019-02-14T09:20:02.078Z,55.46
2019-02-14T09:21:02.039Z,55.54
2019-02-14T09:22:02.602Z,54.59
2019-02-14T09:23:02.019Z,54.82
2019-02-14T09:24:02.008Z,55.54
2019-02-14T09:25:02.039Z,55.15
2019-02-14T09:26:02.524Z,55.13
2019-02-14T09:27:01.980Z,54.90
2019-02-14T09:28:01.984Z,54.59
2019-02-14T09:29:01.960Z,54.18
2019-02-14T09:30:01.963Z,54.57
2019-02-14T09:31:01.935Z,53.92
2019-02-14T09:32:01.923Z,52.90
2019-02-14T09:33:01.926Z,53.72
2019-02-14T09:34:01.906Z,53.28
2019-02-14T09:35:01.909Z,52.36
2019-02-14T09:36:01.880Z,52.00
2019-02-14T09:37:01.875Z,52.11
2019-02-14T09:38:03.646Z,51.57
2019-02-14T09:39:01.845Z,50.42
2019-02-14T09:40:01.852Z,50.75
2019-02-14T09:41:01.831Z,50.75
2019-02-14T09:42:01.819Z,50.96
2019-02-14T09:43:01.809Z,50.63
2019-02-14T09:44:01.803Z,50.67
2019-02-14T09:45:01.797Z,50.85
2019-02-14T09:46:01.779Z,50.55
2019-02-14T09:47:01.757Z,50.63
2019-02-14T09:48:01.747Z,49.73
2019-02-14T09:49:01.745Z,49.22
2019-02-14T09:50:01.746Z,50.55
2019-02-14T09:51:01.727Z,50.32
2019-02-14T09:52:01.702Z,49.60
2019-02-14T09:53:01.706Z,49.07
2019-02-14T09:54:01.698Z,49.30
2019-02-14T09:55:01.696Z,48.99
2019-02-14T09:56:01.666Z,49.83
2019-02-14T09:57:01.660Z,49.83
2019-02-14T09:58:01.638Z,50.49
2019-02-14T09:59:01.632Z,50.78
2019-02-14T10:00:01.643Z,50.63
2019-02-14T10:01:01.603Z,50.30
2019-02-14T10:02:01.597Z,48.69
2019-02-14T10:03:01.580Z,48.67
2019-02-14T10:04:01.586Z,47.42
2019-02-14T10:05:01.600Z,47.04
2019-02-14T10:06:01.561Z,48.39
2019-02-14T10:07:01.544Z,48.11
2019-02-14T10:08:01.534Z,46.87
2019-02-14T10:09:01.533Z,46.01
2019-02-14T10:10:01.521Z,46.40
2019-02-14T10:11:01.504Z,44.87
2019-02-14T10:12:01.487Z,45.67
2019-02-14T10:13:01.472Z,44.65
2019-02-14T10:14:03.585Z,44.53
2019-02-14T10:15:01.476Z,45.91
2019-02-14T10:16:01.440Z,44.81
2019-02-14T10:17:01.432Z,46.48
2019-02-14T10:18:01.420Z,46.79
2019-02-14T10:19:01.408Z,45.95
2019-02-14T10:20:01.424Z,46.61
2019-02-14T10:21:01.411Z,46.53
2019-02-14T10:22:01.375Z,47.88
2019-02-14T10:23:01.365Z,48.41
2019-02-14T10:24:01.356Z,48.61
2019-02-14T10:25:01.369Z,48.72
2019-02-14T10:26:01.340Z,48.64
2019-02-14T10:27:01.336Z,50.22
2019-02-14T10:28:01.316Z,49.60
2019-02-14T10:29:01.301Z,49.81
2019-02-14T10:30:01.315Z,48.79
2019-02-14T10:31:01.279Z,49.01
2019-02-14T10:32:01.273Z,50.49
2019-02-14T10:33:01.261Z,50.47
2019-02-14T10:34:01.268Z,50.57
2019-02-14T10:35:01.263Z,50.65
2019-02-14T10:36:01.227Z,50.63
2019-02-14T10:37:01.215Z,49.81
2019-02-14T10:38:01.210Z,48.86
2019-02-14T10:39:01.203Z,49.55
2019-02-14T10:40:01.191Z,48.51
2019-02-14T10:41:01.217Z,48.64
2019-02-14T10:42:01.160Z,49.46
2019-02-14T10:43:01.157Z,48.92
2019-02-14T10:44:01.144Z,48.72
2019-02-14T10:45:01.128Z,47.90
2019-02-14T10:46:01.132Z,48.92
2019-02-14T10:47:01.112Z,48.74
2019-02-14T10:48:01.110Z,48.58
2019-02-14T10:49:01.087Z,49.40
2019-02-14T10:50:01.080Z,49.68
2019-02-14T10:51:01.084Z,49.07
2019-02-14T10:52:01.060Z,49.96
2019-02-14T10:53:01.043Z,48.61
2019-02-14T10:54:01.043Z,48.02
2019-02-14T10:55:01.021Z,48.35
2019-02-14T10:56:01.032Z,48.43
2019-02-14T10:57:00.999Z,48.10
2019-02-14T10:58:00.991Z,47.14
2019-02-14T10:59:00.978Z,47.02
2019-02-14T11:00:00.969Z,46.53
2019-02-14T11:01:00.980Z,46.48
2019-02-14T11:02:00.949Z,45.83
2019-02-14T11:03:00.960Z,44.89
2019-02-14T11:04:00.926Z,44.14
2019-02-14T11:05:00.916Z,42.80
2019-02-14T11:06:00.931Z,42.88
2019-02-14T11:07:00.893Z,42.00
2019-02-14T11:08:00.887Z,41.26
2019-02-14T11:09:00.876Z,40.11
2019-02-14T11:10:00.860Z,39.68
2019-02-14T11:11:00.885Z,38.75
2019-02-14T11:12:00.839Z,38.19
2019-02-14T11:13:00.830Z,37.57
2019-02-14T11:14:00.822Z,37.46
2019-02-14T11:15:00.809Z,37.53
2019-02-14T11:16:00.813Z,35.60
2019-02-14T11:17:00.788Z,35.48
2019-02-14T11:18:00.789Z,35.26
2019-02-14T11:19:00.764Z,35.58
2019-02-14T11:20:00.756Z,35.58
2019-02-14T11:21:00.762Z,35.68
2019-02-14T11:22:00.733Z,35.43
2019-02-14T11:23:00.725Z,33.82
2019-02-14T11:24:00.730Z,34.84
2019-02-14T11:25:00.728Z,35.25
2019-02-14T11:26:00.709Z,34.09
2019-02-14T11:27:00.679Z,33.65
2019-02-14T11:28:00.671Z,33.20
2019-02-14T11:29:00.664Z,32.07
2019-02-14T11:30:00.648Z,31.44
2019-02-14T11:31:00.665Z,31.96
2019-02-14T11:32:00.633Z,31.14
2019-02-14T11:33:00.614Z,31.43
2019-02-14T11:34:00.604Z,31.23
2019-02-14T11:35:00.594Z,31.04
2019-02-14T11:36:00.599Z,29.98
2019-02-14T11:37:00.581Z,31.09
2019-02-14T11:38:00.569Z,30.87
2019-02-14T11:39:00.551Z,30.85
2019-02-14T11:40:00.541Z,30.87
2019-02-14T11:41:00.548Z,31.40
2019-02-14T11:42:00.519Z,31.53
2019-02-14T11:43:00.520Z,33.51
2019-02-14T11:44:02.737Z,34.16
2019-02-14T11:45:00.491Z,35.95
2019-02-14T11:46:00.497Z,35.28
2019-02-14T11:47:00.468Z,38.20
2019-02-14T11:48:00.463Z,40.18
2019-02-14T11:49:00.471Z,40.22
2019-02-14T11:50:00.436Z,41.47
2019-02-14T11:51:00.453Z,41.23
2019-02-14T11:52:00.415Z,42.80
2019-02-14T11:53:00.404Z,43.73
2019-02-14T11:54:00.397Z,43.71
2019-02-14T11:55:00.394Z,44.22
2019-02-14T11:56:00.403Z,44.45
2019-02-14T11:57:00.364Z,45.26
2019-02-14T11:58:00.352Z,44.32
2019-02-14T11:59:00.339Z,44.51
2019-02-14T12:00:00.336Z,43.59
2019-02-14T12:01:00.360Z,43.06
2019-02-14T12:02:00.332Z,43.37
2019-02-14T12:03:00.317Z,42.19
2019-02-14T12:04:00.287Z,40.36
2019-02-14T12:05:00.275Z,38.23
2019-02-14T12:06:00.268Z,36.68
2019-02-14T12:07:00.278Z,35.44
2019-02-14T12:08:00.262Z,34.39
2019-02-14T12:09:00.710Z,33.75
2019-02-14T12:10:00.239Z,33.39
2019-02-14T12:11:00.211Z,32.53
2019-02-14T12:12:00.218Z,31.71
2019-02-14T12:13:00.201Z,30.80
2019-02-14T12:14:00.204Z,30.30
2019-02-14T12:15:00.280Z,30.69
2019-02-14T12:16:00.159Z,30.71
2019-02-14T12:17:00.179Z,30.12
2019-02-14T12:18:00.138Z,31.43
2019-02-14T12:19:00.131Z,31.16
2019-02-14T12:20:00.309Z,31.45
2019-02-14T12:21:00.116Z,31.03
2019-02-14T12:22:00.116Z,30.52
2019-02-14T12:23:00.084Z,30.93
2019-02-14T12:24:00.074Z,30.14
2019-02-14T12:25:00.148Z,30.44
2019-02-14T12:26:00.068Z,30.77
2019-02-14T12:27:00.064Z,31.51
2019-02-14T12:28:00.031Z,31.67
2019-02-14T12:29:00.020Z,32.95
2019-02-14T12:30:00.009Z,34.30
2019-02-14T12:31:00.001Z,33.92
2019-02-14T12:32:00.019Z,35.19
2019-02-14T12:32:59.980Z,35.63
2019-02-14T12:33:59.966Z,36.07
2019-02-14T12:34:59.957Z,36.29
2019-02-14T12:35:59.947Z,37.53
2019-02-14T12:36:59.952Z,37.66
2019-02-14T12:37:59.953Z,38.78
2019-02-14T12:39:08.366Z,39.21
2019-02-14T12:40:00.967Z,38.70
2019-02-14T12:40:59.893Z,38.70
2019-02-14T12:41:59.898Z,39.19
2019-02-14T12:42:59.871Z,38.99
2019-02-14T12:43:59.878Z,38.89
2019-02-14T12:44:59.849Z,39.50
2019-02-14T12:45:59.840Z,40.19
2019-02-14T12:46:59.847Z,39.99
2019-02-14T12:47:59.819Z,40.41
2019-02-14T12:48:59.809Z,39.90
2019-02-14T12:49:59.813Z,40.31
2019-02-14T12:50:59.784Z,40.41
2019-02-14T12:51:59.814Z,40.31